sensor_id;sensor_type;location;lat;lon;timestamp;pressure;altitude;pressure_sealevel;temperature;humidity
70521;BME280;58442;52.716;23.560;2023-05-02T00:01:17;101652.88;;;4.79;62.02
70521;BME280;58442;52.716;23.560;2023-05-02T00:03:26;101657.46;;;4.78;62.06
70521;BME280;58442;52.716;23.560;2023-05-02T00:05:28;101653.47;;;4.76;62.14
70521;BME280;58442;52.716;23.560;2023-05-02T00:07:30;101656.71;;;4.73;62.16
70521;BME280;58442;52.716;23.560;2023-05-02T00:09:31;101654.30;;;4.71;62.20
70521;BME280;58442;52.716;23.560;2023-05-02T00:11:40;101659.18;;;4.69;62.26
70521;BME280;58442;52.716;23.560;2023-05-02T00:13:42;101651.40;;;4.68;62.38
70521;BME280;58442;52.716;23.560;2023-05-02T00:15:45;101652.75;;;4.65;62.34
70521;BME280;58442;52.716;23.560;2023-05-02T00:17:47;101651.95;;;4.64;62.37
70521;BME280;58442;52.716;23.560;2023-05-02T00:19:55;101654.95;;;4.63;62.40
70521;BME280;58442;52.716;23.560;2023-05-02T00:21:57;101644.46;;;4.61;62.48
70521;BME280;58442;52.716;23.560;2023-05-02T00:23:58;101650.13;;;4.60;62.53
70521;BME280;58442;52.716;23.560;2023-05-02T00:26:00;101648.49;;;4.59;62.52
70521;BME280;58442;52.716;23.560;2023-05-02T00:28:11;101649.59;;;4.58;62.54
70521;BME280;58442;52.716;23.560;2023-05-02T00:30:13;101645.81;;;4.59;62.63
70521;BME280;58442;52.716;23.560;2023-05-02T00:32:15;101645.81;;;4.59;62.61
70521;BME280;58442;52.716;23.560;2023-05-02T00:34:18;101643.11;;;4.59;62.63
70521;BME280;58442;52.716;23.560;2023-05-02T00:36:25;101638.32;;;4.56;62.71
70521;BME280;58442;52.716;23.560;2023-05-02T00:38:27;101632.43;;;4.54;62.80
70521;BME280;58442;52.716;23.560;2023-05-02T00:40:30;101634.31;;;4.53;62.86
70521;BME280;58442;52.716;23.560;2023-05-02T00:42:33;101637.27;;;4.52;62.82
70521;BME280;58442;52.716;23.560;2023-05-02T00:44:40;101636.17;;;4.53;62.83
70521;BME280;58442;52.716;23.560;2023-05-02T00:46:43;101631.88;;;4.52;62.86
70521;BME280;58442;52.716;23.560;2023-05-02T00:48:44;101624.90;;;4.51;62.87
70521;BME280;58442;52.716;23.560;2023-05-02T00:50:46;101629.48;;;4.50;62.84
70521;BME280;58442;52.716;23.560;2023-05-02T00:52:56;101627.88;;;4.49;62.86
70521;BME280;58442;52.716;23.560;2023-05-02T00:54:58;101631.66;;;4.48;62.91
70521;BME280;58442;52.716;23.560;2023-05-02T00:57:02;101627.38;;;4.47;62.91
70521;BME280;58442;52.716;23.560;2023-05-02T00:59:05;101619.30;;;4.47;62.86
70521;BME280;58442;52.716;23.560;2023-05-02T01:03:43;101626.84;;;4.45;62.86
70521;BME280;58442;52.716;23.560;2023-05-02T01:06:04;101622.03;;;4.42;62.97
70521;BME280;58442;52.716;23.560;2023-05-02T01:08:30;101616.94;;;4.41;63.01
70521;BME280;58442;52.716;23.560;2023-05-02T01:10:46;101613.45;;;4.40;63.03
70521;BME280;58442;52.716;23.560;2023-05-02T01:13:02;101617.20;;;4.39;63.02
70521;BME280;58442;52.716;23.560;2023-05-02T01:15:10;101619.38;;;4.37;63.16
70521;BME280;58442;52.716;23.560;2023-05-02T01:17:14;101613.77;;;4.33;63.26
70521;BME280;58442;52.716;23.560;2023-05-02T01:19:29;101610.55;;;4.31;63.30
70521;BME280;58442;52.716;23.560;2023-05-02T01:21:30;101611.13;;;4.28;63.43
70521;BME280;58442;52.716;23.560;2023-05-02T01:23:52;101610.61;;;4.26;63.54
70521;BME280;58442;52.716;23.560;2023-05-02T01:30:44;101592.34;;;4.23;63.67
70521;BME280;58442;52.716;23.560;2023-05-02T01:32:48;101587.74;;;4.24;63.69
70521;BME280;58442;52.716;23.560;2023-05-02T01:34:53;101589.13;;;4.21;63.82
70521;BME280;58442;52.716;23.560;2023-05-02T01:36:58;101587.53;;;4.20;63.78
70521;BME280;58442;52.716;23.560;2023-05-02T01:39:02;101578.66;;;4.20;63.76
70521;BME280;58442;52.716;23.560;2023-05-02T01:41:04;101584.30;;;4.18;63.82
70521;BME280;58442;52.716;23.560;2023-05-02T01:43:08;101583.23;;;4.19;63.80
70521;BME280;58442;52.716;23.560;2023-05-02T01:45:11;101579.74;;;4.19;63.77
70521;BME280;58442;52.716;23.560;2023-05-02T01:47:14;101579.74;;;4.19;63.72
70521;BME280;58442;52.716;23.560;2023-05-02T01:49:17;101580.80;;;4.18;63.77
70521;BME280;58442;52.716;23.560;2023-05-02T01:51:20;101578.11;;;4.18;63.77
70521;BME280;58442;52.716;23.560;2023-05-02T01:53:25;101574.91;;;4.16;63.78
70521;BME280;58442;52.716;23.560;2023-05-02T01:55:28;101578.41;;;4.16;63.76
70521;BME280;58442;52.716;23.560;2023-05-02T01:57:31;101579.49;;;4.15;63.81
70521;BME280;58442;52.716;23.560;2023-05-02T01:59:34;101560.67;;;4.15;63.80
70521;BME280;58442;52.716;23.560;2023-05-02T02:01:38;101572.23;;;4.16;63.76
70521;BME280;58442;52.716;23.560;2023-05-02T02:03:43;101564.16;;;4.16;63.75
70521;BME280;58442;52.716;23.560;2023-05-02T02:05:47;101560.67;;;4.15;63.77
70521;BME280;58442;52.716;23.560;2023-05-02T02:07:49;101552.08;;;4.13;63.81
70521;BME280;58442;52.716;23.560;2023-05-02T02:09:51;101553.17;;;4.12;63.81
70521;BME280;58442;52.716;23.560;2023-05-02T02:14:25;101550.23;;;4.08;63.98
70521;BME280;58442;52.716;23.560;2023-05-02T02:16:30;101547.84;;;4.07;64.07
70521;BME280;58442;52.716;23.560;2023-05-02T02:18:35;101547.33;;;4.05;64.13
70521;BME280;58442;52.716;23.560;2023-05-02T02:20:42;101542.74;;;4.05;64.12
70521;BME280;58442;52.716;23.560;2023-05-02T02:22:44;101537.63;;;4.04;64.14
70521;BME280;58442;52.716;23.560;2023-05-02T02:24:48;101545.19;;;4.02;64.31
70521;BME280;58442;52.716;23.560;2023-05-02T02:26:51;101535.01;;;3.99;64.35
70521;BME280;58442;52.716;23.560;2023-05-02T02:28:52;101544.67;;;4.00;64.40
70521;BME280;58442;52.716;23.560;2023-05-02T02:30:55;101538.49;;;3.99;64.36
70521;BME280;58442;52.716;23.560;2023-05-02T02:32:57;101544.96;;;3.98;64.40
70521;BME280;58442;52.716;23.560;2023-05-02T02:34:59;101544.13;;;3.98;64.40
70521;BME280;58442;52.716;23.560;2023-05-02T02:37:08;101543.08;;;3.99;64.41
70521;BME280;58442;52.716;23.560;2023-05-02T02:41:38;101537.12;;;4.02;64.40
70521;BME280;58442;52.716;23.560;2023-05-02T02:43:52;101537.91;;;4.02;64.40
70521;BME280;58442;52.716;23.560;2023-05-02T02:46:25;101543.80;;;4.04;64.35
70521;BME280;58442;52.716;23.560;2023-05-02T02:52:46;101541.11;;;4.04;64.39
70521;BME280;58442;52.716;23.560;2023-05-02T02:54:52;101534.93;;;4.04;64.38
70521;BME280;58442;52.716;23.560;2023-05-02T02:57:14;101534.67;;;4.05;64.42
70521;BME280;58442;52.716;23.560;2023-05-02T02:59:30;101534.39;;;4.07;64.56
70521;BME280;58442;52.716;23.560;2023-05-02T03:01:33;101533.80;;;4.10;64.44
70521;BME280;58442;52.716;23.560;2023-05-02T03:03:39;101532.72;;;4.11;64.47
70521;BME280;58442;52.716;23.560;2023-05-02T03:05:43;101525.18;;;4.13;64.33
70521;BME280;58442;52.716;23.560;2023-05-02T03:07:44;101529.48;;;4.14;64.35
70521;BME280;58442;52.716;23.560;2023-05-02T03:09:46;101528.38;;;4.15;64.40
70521;BME280;58442;52.716;23.560;2023-05-02T03:11:48;101522.71;;;4.17;64.39
70521;BME280;58442;52.716;23.560;2023-05-02T03:13:50;101522.16;;;4.20;64.40
70521;BME280;58442;52.716;23.560;2023-05-02T03:18:19;101520.77;;;4.22;64.44
70521;BME280;58442;52.716;23.560;2023-05-02T03:20:21;101508.63;;;4.25;64.49
70521;BME280;58442;52.716;23.560;2023-05-02T03:22:23;101520.44;;;4.29;64.52
70521;BME280;58442;52.716;23.560;2023-05-02T03:24:24;101510.72;;;4.33;64.47
70521;BME280;58442;52.716;23.560;2023-05-02T03:26:34;101517.41;;;4.35;64.45
70521;BME280;58442;52.716;23.560;2023-05-02T03:28:36;101505.00;;;4.39;64.48
70521;BME280;58442;52.716;23.560;2023-05-02T03:30:37;101499.82;;;4.43;64.47
70521;BME280;58442;52.716;23.560;2023-05-02T03:32:41;101498.45;;;4.46;64.45
70521;BME280;58442;52.716;23.560;2023-05-02T03:34:49;101497.59;;;4.50;64.44
70521;BME280;58442;52.716;23.560;2023-05-02T03:36:51;101497.84;;;4.54;64.48
70521;BME280;58442;52.716;23.560;2023-05-02T03:38:52;101494.26;;;4.58;64.46
70521;BME280;58442;52.716;23.560;2023-05-02T03:40:56;101504.67;;;4.65;64.40
70521;BME280;58442;52.716;23.560;2023-05-02T03:43:04;101491.95;;;4.71;64.38
70521;BME280;58442;52.716;23.560;2023-05-02T03:45:07;101487.31;;;4.76;64.36
70521;BME280;58442;52.716;23.560;2023-05-02T03:47:08;101490.74;;;4.82;64.34
70521;BME280;58442;52.716;23.560;2023-05-02T03:49:10;101489.59;;;4.88;64.25
70521;BME280;58442;52.716;23.560;2023-05-02T03:51:19;101490.30;;;4.93;64.20
70521;BME280;58442;52.716;23.560;2023-05-02T03:53:21;101493.43;;;5.01;64.21
70521;BME280;58442;52.716;23.560;2023-05-02T03:55:22;101486.08;;;5.06;64.16
70521;BME280;58442;52.716;23.560;2023-05-02T03:57:24;101474.94;;;5.13;64.03
70521;BME280;58442;52.716;23.560;2023-05-02T03:59:34;101479.16;;;5.19;63.99
70521;BME280;58442;52.716;23.560;2023-05-02T04:01:41;101479.59;;;5.26;64.04
70521;BME280;58442;52.716;23.560;2023-05-02T04:03:42;101478.42;;;5.32;63.96
70521;BME280;58442;52.716;23.560;2023-05-02T04:05:43;101472.66;;;5.39;63.87
70521;BME280;58442;52.716;23.560;2023-05-02T04:07:49;101474.98;;;5.45;63.82
70521;BME280;58442;52.716;23.560;2023-05-02T04:09:51;101467.32;;;5.53;63.80
70521;BME280;58442;52.716;23.560;2023-05-02T04:11:52;101473.62;;;5.62;63.69
70521;BME280;58442;52.716;23.560;2023-05-02T04:13:54;101475.67;;;5.70;63.57
70521;BME280;58442;52.716;23.560;2023-05-02T04:16:05;101483.56;;;5.80;63.50
70521;BME280;58442;52.716;23.560;2023-05-02T04:18:06;101468.59;;;5.88;63.47
70521;BME280;58442;52.716;23.560;2023-05-02T04:20:10;101468.24;;;5.94;63.33
70521;BME280;58442;52.716;23.560;2023-05-02T04:22:12;101463.24;;;6.01;63.23
70521;BME280;58442;52.716;23.560;2023-05-02T04:24:19;101456.35;;;6.09;63.12
70521;BME280;58442;52.716;23.560;2023-05-02T04:26:21;101451.88;;;6.18;63.03
70521;BME280;58442;52.716;23.560;2023-05-02T04:28:22;101460.07;;;6.27;62.93
70521;BME280;58442;52.716;23.560;2023-05-02T04:30:24;101453.66;;;6.37;62.79
70521;BME280;58442;52.716;23.560;2023-05-02T04:32:34;101452.36;;;6.48;62.69
70521;BME280;58442;52.716;23.560;2023-05-02T04:34:36;101455.63;;;6.58;62.58
70521;BME280;58442;52.716;23.560;2023-05-02T04:36:37;101457.33;;;6.68;62.37
70521;BME280;58442;52.716;23.560;2023-05-02T04:38:39;101451.91;;;6.82;62.21
70521;BME280;58442;52.716;23.560;2023-05-02T04:40:50;101462.68;;;6.96;61.98
70521;BME280;58442;52.716;23.560;2023-05-02T04:42:52;101447.52;;;7.08;61.72
70521;BME280;58442;52.716;23.560;2023-05-02T04:44:53;101460.67;;;7.24;61.49
70521;BME280;58442;52.716;23.560;2023-05-02T04:46:55;101464.43;;;7.36;61.28
70521;BME280;58442;52.716;23.560;2023-05-02T04:49:04;101461.17;;;7.48;60.90
70521;BME280;58442;52.716;23.560;2023-05-02T04:51:06;101463.30;;;7.60;60.89
70521;BME280;58442;52.716;23.560;2023-05-02T04:53:07;101470.86;;;7.72;60.70
70521;BME280;58442;52.716;23.560;2023-05-02T04:55:08;101460.59;;;7.82;60.46
70521;BME280;58442;52.716;23.560;2023-05-02T04:57:19;101463.68;;;7.98;60.13
70521;BME280;58442;52.716;23.560;2023-05-02T04:59:20;101461.67;;;8.12;59.81
70521;BME280;58442;52.716;23.560;2023-05-02T05:01:24;101470.48;;;8.27;59.54
70521;BME280;58442;52.716;23.560;2023-05-02T05:03:27;101464.18;;;8.40;59.25
70521;BME280;58442;52.716;23.560;2023-05-02T05:05:34;101468.68;;;8.53;59.00
70521;BME280;58442;52.716;23.560;2023-05-02T05:07:35;101445.28;;;8.66;58.66
70521;BME280;58442;52.716;23.560;2023-05-02T05:09:37;101450.38;;;8.76;58.44
70521;BME280;58442;52.716;23.560;2023-05-02T05:11:38;101440.84;;;8.87;58.32
70521;BME280;58442;52.716;23.560;2023-05-02T05:13:49;101431.91;;;8.95;58.19
70521;BME280;58442;52.716;23.560;2023-05-02T05:15:51;101431.10;;;9.03;58.02
70521;BME280;58442;52.716;23.560;2023-05-02T05:17:52;101435.09;;;9.15;57.77
70521;BME280;58442;52.716;23.560;2023-05-02T05:19:54;101430.12;;;9.25;57.50
70521;BME280;58442;52.716;23.560;2023-05-02T05:22:04;101445.28;;;9.35;57.37
70521;BME280;58442;52.716;23.560;2023-05-02T05:24:05;101445.73;;;9.46;57.05
70521;BME280;58442;52.716;23.560;2023-05-02T05:26:10;101456.27;;;9.56;56.75
70521;BME280;58442;52.716;23.560;2023-05-02T05:28:12;101450.47;;;9.66;56.51
70521;BME280;58442;52.716;23.560;2023-05-02T05:30:19;101449.03;;;9.77;56.24
70521;BME280;58442;52.716;23.560;2023-05-02T05:32:20;101445.94;;;9.87;56.00
70521;BME280;58442;52.716;23.560;2023-05-02T05:34:21;101446.39;;;9.98;55.76
70521;BME280;58442;52.716;23.560;2023-05-02T05:36:25;101445.72;;;10.10;55.51
70521;BME280;58442;52.716;23.560;2023-05-02T05:38:34;101441.48;;;10.21;55.26
70521;BME280;58442;52.716;23.560;2023-05-02T05:40:35;101443.09;;;10.31;54.89
70521;BME280;58442;52.716;23.560;2023-05-02T05:42:37;101447.00;;;10.42;54.74
70521;BME280;58442;52.716;23.560;2023-05-02T05:44:38;101446.64;;;10.52;54.48
70521;BME280;58442;52.716;23.560;2023-05-02T05:46:48;101444.02;;;10.64;54.27
70521;BME280;58442;52.716;23.560;2023-05-02T05:48:50;101444.40;;;10.75;54.06
70521;BME280;58442;52.716;23.560;2023-05-02T05:50:51;101439.38;;;10.86;53.74
70521;BME280;58442;52.716;23.560;2023-05-02T05:52:53;101443.62;;;10.95;53.62
70521;BME280;58442;52.716;23.560;2023-05-02T05:55:04;101428.00;;;11.05;53.42
70521;BME280;58442;52.716;23.560;2023-05-02T05:57:06;101432.26;;;11.14;53.17
70521;BME280;58442;52.716;23.560;2023-05-02T05:59:07;101439.20;;;11.24;52.93
70521;BME280;58442;52.716;23.560;2023-05-02T06:01:09;101416.54;;;11.32;52.81
70521;BME280;58442;52.716;23.560;2023-05-02T06:03:18;101424.30;;;11.42;52.59
70521;BME280;58442;52.716;23.560;2023-05-02T06:05:19;101421.03;;;11.49;52.31
70521;BME280;58442;52.716;23.560;2023-05-02T06:07:21;101426.38;;;11.58;52.17
70521;BME280;58442;52.716;23.560;2023-05-02T06:09:23;101419.23;;;11.65;52.00
70521;BME280;58442;52.716;23.560;2023-05-02T06:11:33;101418.03;;;11.75;51.79
70521;BME280;58442;52.716;23.560;2023-05-02T06:13:36;101429.20;;;11.82;51.61
70521;BME280;58442;52.716;23.560;2023-05-02T06:15:38;101418.20;;;11.91;51.50
70521;BME280;58442;52.716;23.560;2023-05-02T06:17:39;101421.94;;;11.98;51.37
70521;BME280;58442;52.716;23.560;2023-05-02T06:19:48;101425.34;;;12.08;51.22
70521;BME280;58442;52.716;23.560;2023-05-02T06:21:49;101418.20;;;12.15;51.02
70521;BME280;58442;52.716;23.560;2023-05-02T06:23:51;101423.88;;;12.22;50.83
70521;BME280;58442;52.716;23.560;2023-05-02T06:25:53;101421.38;;;12.29;50.73
70521;BME280;58442;52.716;23.560;2023-05-02T06:28:03;101428.64;;;12.38;50.66
70521;BME280;58442;52.716;23.560;2023-05-02T06:30:05;101424.20;;;12.45;50.51
70521;BME280;58442;52.716;23.560;2023-05-02T06:32:07;101430.30;;;12.54;50.42
70521;BME280;58442;52.716;23.560;2023-05-02T06:34:10;101429.84;;;12.65;50.24
70521;BME280;58442;52.716;23.560;2023-05-02T06:36:17;101431.64;;;12.73;50.11
70521;BME280;58442;52.716;23.560;2023-05-02T06:38:19;101426.84;;;12.82;49.94
70521;BME280;58442;52.716;23.560;2023-05-02T06:40:21;101420.13;;;12.92;49.81
70521;BME280;58442;52.716;23.560;2023-05-02T06:42:23;101430.53;;;13.02;49.71
70521;BME280;58442;52.716;23.560;2023-05-02T06:44:32;101429.26;;;13.11;49.57
70521;BME280;58442;52.716;23.560;2023-05-02T06:46:33;101420.95;;;13.20;49.39
70521;BME280;58442;52.716;23.560;2023-05-02T06:48:35;101424.30;;;13.29;49.29
70521;BME280;58442;52.716;23.560;2023-05-02T06:50:37;101415.16;;;13.37;49.19
70521;BME280;58442;52.716;23.560;2023-05-02T06:52:47;101415.35;;;13.45;49.14
70521;BME280;58442;52.716;23.560;2023-05-02T06:54:48;101421.82;;;13.52;48.93
70521;BME280;58442;52.716;23.560;2023-05-02T06:56:50;101412.55;;;13.57;48.79
70521;BME280;58442;52.716;23.560;2023-05-02T06:58:52;101415.75;;;13.59;48.73
70521;BME280;58442;52.716;23.560;2023-05-02T07:01:02;101415.11;;;13.65;48.62
70521;BME280;58442;52.716;23.560;2023-05-02T07:03:03;101405.88;;;13.70;48.54
70521;BME280;58442;52.716;23.560;2023-05-02T07:05:05;101407.55;;;13.75;48.49
70521;BME280;58442;52.716;23.560;2023-05-02T07:07:07;101395.22;;;13.81;48.38
70521;BME280;58442;52.716;23.560;2023-05-02T07:09:17;101396.19;;;13.88;48.24
70521;BME280;58442;52.716;23.560;2023-05-02T07:11:19;101397.14;;;13.96;48.16
70521;BME280;58442;52.716;23.560;2023-05-02T07:13:23;101401.63;;;14.04;48.05
70521;BME280;58442;52.716;23.560;2023-05-02T07:15:25;101399.06;;;14.11;47.92
70521;BME280;58442;52.716;23.560;2023-05-02T07:17:31;101397.38;;;14.22;47.86
70521;BME280;58442;52.716;23.560;2023-05-02T07:19:33;101400.34;;;14.33;47.79
70521;BME280;58442;52.716;23.560;2023-05-02T07:21:34;101403.33;;;14.44;47.70
70521;BME280;58442;52.716;23.560;2023-05-02T07:23:36;101408.63;;;14.53;47.61
70521;BME280;58442;52.716;23.560;2023-05-02T07:25:47;101408.08;;;14.63;47.55
70521;BME280;58442;52.716;23.560;2023-05-02T07:27:48;101399.72;;;14.75;47.47
70521;BME280;58442;52.716;23.560;2023-05-02T07:29:50;101402.32;;;14.87;47.25
70521;BME280;58442;52.716;23.560;2023-05-02T07:31:52;101406.49;;;15.00;47.20
70521;BME280;58442;52.716;23.560;2023-05-02T07:34:01;101402.45;;;15.14;47.08
70521;BME280;58442;52.716;23.560;2023-05-02T07:36:03;101403.81;;;15.23;46.84
70521;BME280;58442;52.716;23.560;2023-05-02T07:38:04;101416.50;;;15.31;46.70
70521;BME280;58442;52.716;23.560;2023-05-02T07:40:07;101402.98;;;15.42;46.58
70521;BME280;58442;52.716;23.560;2023-05-02T07:42:16;101402.02;;;15.54;46.34
70521;BME280;58442;52.716;23.560;2023-05-02T07:44:18;101407.74;;;15.65;46.22
70521;BME280;58442;52.716;23.560;2023-05-02T07:46:19;101408.70;;;15.76;46.10
70521;BME280;58442;52.716;23.560;2023-05-02T07:48:21;101405.77;;;15.88;45.95
70521;BME280;58442;52.716;23.560;2023-05-02T07:50:31;101409.16;;;16.04;45.85
70521;BME280;58442;52.716;23.560;2023-05-02T07:52:32;101401.94;;;16.19;45.46
70521;BME280;58442;52.716;23.560;2023-05-02T07:54:34;101410.34;;;16.30;45.41
70521;BME280;58442;52.716;23.560;2023-05-02T07:56:36;101408.89;;;16.39;45.36
70521;BME280;58442;52.716;23.560;2023-05-02T07:58:45;101407.52;;;16.53;45.18
70521;BME280;58442;52.716;23.560;2023-05-02T08:00:47;101408.46;;;16.64;45.03
70521;BME280;58442;52.716;23.560;2023-05-02T08:02:50;101402.33;;;16.74;44.67
70521;BME280;58442;52.716;23.560;2023-05-02T08:04:51;101403.27;;;16.85;44.53
70521;BME280;58442;52.716;23.560;2023-05-02T08:07:00;101403.41;;;16.96;44.32
70521;BME280;58442;52.716;23.560;2023-05-02T08:09:02;101403.52;;;17.07;44.14
70521;BME280;58442;52.716;23.560;2023-05-02T08:11:03;101405.25;;;17.22;43.98
70521;BME280;58442;52.716;23.560;2023-05-02T08:13:05;101406.62;;;17.39;43.81
70521;BME280;58442;52.716;23.560;2023-05-02T08:15:15;101404.39;;;17.52;43.58
70521;BME280;58442;52.716;23.560;2023-05-02T08:17:16;101403.34;;;17.67;43.40
70521;BME280;58442;52.716;23.560;2023-05-02T08:19:18;101399.17;;;17.80;43.17
70521;BME280;58442;52.716;23.560;2023-05-02T08:21:19;101392.59;;;17.92;42.97
70521;BME280;58442;52.716;23.560;2023-05-02T08:23:30;101392.70;;;18.06;42.83
70521;BME280;58442;52.716;23.560;2023-05-02T08:25:31;101395.94;;;18.19;42.69
70521;BME280;58442;52.716;23.560;2023-05-02T08:27:33;101387.77;;;18.37;42.58
70521;BME280;58442;52.716;23.560;2023-05-02T08:29:35;101393.78;;;18.53;42.41
70521;BME280;58442;52.716;23.560;2023-05-02T08:31:44;101393.82;;;18.64;42.29
70521;BME280;58442;52.716;23.560;2023-05-02T08:33:46;101391.15;;;18.78;42.06
70521;BME280;58442;52.716;23.560;2023-05-02T08:35:48;101397.14;;;18.94;41.93
70521;BME280;58442;52.716;23.560;2023-05-02T08:37:50;101395.98;;;19.06;41.68
70521;BME280;58442;52.716;23.560;2023-05-02T08:39:59;101386.18;;;19.16;41.71
70521;BME280;58442;52.716;23.560;2023-05-02T08:42:05;101394.85;;;19.25;41.60
70521;BME280;58442;52.716;23.560;2023-05-02T08:44:07;101395.64;;;19.32;41.43
70521;BME280;58442;52.716;23.560;2023-05-02T08:46:10;101394.50;;;19.44;41.27
70521;BME280;58442;52.716;23.560;2023-05-02T08:48:15;101393.71;;;19.54;41.22
70521;BME280;58442;52.716;23.560;2023-05-02T08:50:18;101381.55;;;19.66;41.13
70521;BME280;58442;52.716;23.560;2023-05-02T08:52:22;101387.85;;;19.77;41.10
70521;BME280;58442;52.716;23.560;2023-05-02T08:54:25;101397.30;;;19.94;40.86
70521;BME280;58442;52.716;23.560;2023-05-02T08:56:29;101394.13;;;20.10;40.74
70521;BME280;58442;52.716;23.560;2023-05-02T08:58:31;101384.66;;;20.25;40.62
70521;BME280;58442;52.716;23.560;2023-05-02T09:00:33;101392.11;;;20.39;40.49
70521;BME280;58442;52.716;23.560;2023-05-02T09:04:54;101374.25;;;20.72;40.25
70521;BME280;58442;52.716;23.560;2023-05-02T09:07:05;101383.29;;;20.87;40.11
70521;BME280;58442;52.716;23.560;2023-05-02T09:09:06;101385.58;;;20.99;39.97
70521;BME280;58442;52.716;23.560;2023-05-02T09:11:10;101376.03;;;21.11;39.91
70521;BME280;58442;52.716;23.560;2023-05-02T09:15:25;101383.86;;;21.30;39.57
70521;BME280;58442;52.716;23.560;2023-05-02T09:19:39;101372.32;;;21.42;39.45
70521;BME280;58442;52.716;23.560;2023-05-02T09:21:42;101381.77;;;21.48;39.35
70521;BME280;58442;52.716;23.560;2023-05-02T09:23:49;101384.86;;;21.54;39.35
70521;BME280;58442;52.716;23.560;2023-05-02T09:25:51;101381.24;;;21.64;39.32
70521;BME280;58442;52.716;23.560;2023-05-02T09:27:54;101378.37;;;21.75;39.21
70521;BME280;58442;52.716;23.560;2023-05-02T09:32:09;101370.29;;;21.95;38.96
70521;BME280;58442;52.716;23.560;2023-05-02T09:34:19;101371.40;;;22.04;38.87
70521;BME280;58442;52.716;23.560;2023-05-02T09:36:21;101363.77;;;22.16;38.78
70521;BME280;58442;52.716;23.560;2023-05-02T09:38:22;101368.86;;;22.24;38.63
70521;BME280;58442;52.716;23.560;2023-05-02T09:40:25;101356.13;;;22.30;38.46
70521;BME280;58442;52.716;23.560;2023-05-02T09:42:35;101355.63;;;22.39;38.35
70521;BME280;58442;52.716;23.560;2023-05-02T09:44:37;101353.14;;;22.48;38.26
70521;BME280;58442;52.716;23.560;2023-05-02T09:46:45;101353.38;;;22.61;38.11
70521;BME280;58442;52.716;23.560;2023-05-02T09:48:56;101358.41;;;22.70;38.07
70521;BME280;58442;52.716;23.560;2023-05-02T09:50:59;101363.08;;;22.76;37.96
70521;BME280;58442;52.716;23.560;2023-05-02T09:53:11;101363.76;;;22.87;37.92
70521;BME280;58442;52.716;23.560;2023-05-02T09:55:19;101364.02;;;22.97;37.67
70521;BME280;58442;52.716;23.560;2023-05-02T09:59:40;101352.58;;;23.22;37.46
70521;BME280;58442;52.716;23.560;2023-05-02T10:01:44;101346.39;;;23.37;37.44
70521;BME280;58442;52.716;23.560;2023-05-02T10:03:51;101353.27;;;23.53;37.33
70521;BME280;58442;52.716;23.560;2023-05-02T10:05:54;101356.27;;;23.65;37.22
70521;BME280;58442;52.716;23.560;2023-05-02T10:07:58;101355.23;;;23.79;37.06
70521;BME280;58442;52.716;23.560;2023-05-02T10:10:01;101348.77;;;23.86;37.04
70521;BME280;58442;52.716;23.560;2023-05-02T10:12:05;101349.07;;;23.91;37.04
70521;BME280;58442;52.716;23.560;2023-05-02T10:14:09;101348.59;;;23.96;36.92
70521;BME280;58442;52.716;23.560;2023-05-02T10:16:15;101342.53;;;24.01;36.89
70521;BME280;58442;52.716;23.560;2023-05-02T10:20:36;101334.79;;;24.13;36.74
70521;BME280;58442;52.716;23.560;2023-05-02T10:22:42;101343.07;;;24.16;36.69
70521;BME280;58442;52.716;23.560;2023-05-02T10:24:47;101339.41;;;24.19;36.67
70521;BME280;58442;52.716;23.560;2023-05-02T10:26:49;101333.43;;;24.21;36.64
70521;BME280;58442;52.716;23.560;2023-05-02T10:28:53;101336.98;;;24.21;36.55
70521;BME280;58442;52.716;23.560;2023-05-02T10:30:59;101330.60;;;24.24;36.51
70521;BME280;58442;52.716;23.560;2023-05-02T10:33:03;101325.05;;;24.24;36.45
70521;BME280;58442;52.716;23.560;2023-05-02T10:35:06;101329.82;;;24.24;36.41
70521;BME280;58442;52.716;23.560;2023-05-02T10:37:10;101331.38;;;24.25;36.34
70521;BME280;58442;52.716;23.560;2023-05-02T10:39:12;101323.40;;;24.27;36.40
70521;BME280;58442;52.716;23.560;2023-05-02T10:41:21;101308.61;;;24.34;36.28
70521;BME280;58442;52.716;23.560;2023-05-02T10:43:30;101314.30;;;24.46;36.25
70521;BME280;58442;52.716;23.560;2023-05-02T10:45:36;101313.28;;;24.56;36.10
70521;BME280;58442;52.716;23.560;2023-05-02T10:47:38;101299.60;;;24.66;35.99
70521;BME280;58442;52.716;23.560;2023-05-02T10:51:54;101305.96;;;24.82;35.93
70521;BME280;58442;52.716;23.560;2023-05-02T10:54:20;101308.58;;;24.90;35.71
70521;BME280;58442;52.716;23.560;2023-05-02T10:56:19;101300.61;;;24.92;35.72
70521;BME280;58442;52.716;23.560;2023-05-02T10:58:26;101299.66;;;24.98;35.62
70521;BME280;58442;52.716;23.560;2023-05-02T11:00:32;101315.98;;;24.96;35.50
70521;BME280;58442;52.716;23.560;2023-05-02T11:02:45;101318.31;;;24.81;35.80
70521;BME280;58442;52.716;23.560;2023-05-02T11:05:03;101323.21;;;24.58;36.03
70521;BME280;58442;52.716;23.560;2023-05-02T11:07:16;101323.28;;;24.34;36.21
70521;BME280;58442;52.716;23.560;2023-05-02T11:09:30;101325.63;;;24.16;36.34
70521;BME280;58442;52.716;23.560;2023-05-02T11:11:40;101320.96;;;23.89;36.54
70521;BME280;58442;52.716;23.560;2023-05-02T11:13:49;101315.05;;;23.64;36.78
70521;BME280;58442;52.716;23.560;2023-05-02T11:15:55;101310.43;;;23.54;36.78
70521;BME280;58442;52.716;23.560;2023-05-02T11:18:04;101311.54;;;23.36;37.00
70521;BME280;58442;52.716;23.560;2023-05-02T11:22:29;101324.11;;;23.17;37.12
70521;BME280;58442;52.716;23.560;2023-05-02T11:24:41;101320.44;;;23.24;37.02